Time;durP1;ratioP1;P1;durP2;ratioP2;P2;SDS_P1;SDS_P2;PMS_P1;PMS_P2;Temp;Humidity;BMP_temperature;BMP_pressure;BME280_temperature;BME280_humidity;BME280_pressure;Samples;Min_cycle;Max_cycle;Signal;HPM_P1;HPM_P2
2022/01/11 00:00:04;;;;;;;25.80;17.08;;;-0.80;99.90;;;;;;5126907;27;20042;-64
2022/01/11 00:02:31;;;;;;;21.23;14.65;;;-0.80;99.90;;;;;;5128186;27;20045;-64
2022/01/11 00:04:57;;;;;;;20.20;14.68;;;-0.80;99.90;;;;;;5128980;27;20498;-63
2022/01/11 00:07:23;;;;;;;22.10;15.65;;;-0.90;99.90;;;;;;5128015;27;20051;-64
2022/01/11 00:09:51;;;;;;;22.77;15.15;;;-0.90;99.90;;;;;;5127568;27;20543;-63
2022/01/11 00:12:17;;;;;;;28.00;17.67;;;-1.00;99.90;;;;;;5128936;27;20031;-64
2022/01/11 00:14:43;;;;;;;26.05;17.52;;;-0.90;99.90;;;;;;5127502;27;20031;-64
2022/01/11 00:17:09;;;;;;;29.17;17.48;;;-0.90;99.90;;;;;;5127293;27;20053;-64
2022/01/11 00:19:35;;;;;;;28.50;17.25;;;-0.90;99.90;;;;;;5108345;27;20043;-63
2022/01/11 00:22:06;;;;;;;28.75;18.00;;;-0.90;99.90;;;;;;5129451;27;20995;-64
2022/01/11 00:24:36;;;;;;;27.20;17.17;;;-0.80;99.90;;;;;;5128421;27;20462;-64
2022/01/11 00:27:07;;;;;;;27.75;16.83;;;-0.80;99.90;;;;;;5127279;27;20101;-63
2022/01/11 00:29:35;;;;;;;28.52;16.95;;;-0.80;99.90;;;;;;5128549;27;20147;-64
2022/01/11 00:32:06;;;;;;;26.52;16.75;;;-0.80;99.90;;;;;;5127622;27;20949;-64
2022/01/11 00:35:10;;;;;;;30.33;18.17;;;-0.80;99.90;;;;;;5127684;27;20047;-63
2022/01/11 00:37:26;;;;;;;34.78;18.75;;;-0.70;99.90;;;;;;5125585;27;20096;-63
2022/01/11 00:39:52;;;;;;;25.92;15.85;;;-0.70;99.90;;;;;;5127424;27;20043;-63
2022/01/11 00:42:20;;;;;;;30.90;17.75;;;-0.70;99.90;;;;;;5127559;27;20066;-63
2022/01/11 00:44:46;;;;;;;25.85;16.48;;;-0.70;99.90;;;;;;5127584;27;20046;-63
2022/01/11 00:47:11;;;;;;;32.60;17.73;;;-0.80;99.90;;;;;;5127270;27;20044;-63
2022/01/11 00:49:39;;;;;;;37.38;18.33;;;-0.80;99.90;;;;;;5127488;27;20117;-63
2022/01/11 00:52:06;;;;;;;28.38;16.50;;;-0.80;99.90;;;;;;5108639;27;20058;-63
2022/01/11 00:54:31;;;;;;;30.75;17.05;;;-0.80;99.90;;;;;;5128293;27;20035;-63
2022/01/11 00:56:57;;;;;;;29.60;17.33;;;-0.50;99.90;;;;;;5127067;27;20054;-63
2022/01/11 00:59:23;;;;;;;33.78;17.35;;;-0.90;99.90;;;;;;5126445;27;20121;-63
2022/01/11 01:01:49;;;;;;;32.20;17.67;;;-0.90;99.90;;;;;;5129288;27;20501;-63
2022/01/11 01:04:15;;;;;;;37.10;18.25;;;-0.90;99.90;;;;;;5128890;27;20381;-63
2022/01/11 01:06:42;;;;;;;35.67;18.50;;;-0.90;99.90;;;;;;5126777;27;20035;-63
2022/01/11 01:09:08;;;;;;;31.77;18.55;;;-0.90;99.90;;;;;;5124539;27;20097;-63
2022/01/11 01:11:34;;;;;;;36.85;18.73;;;-0.80;99.90;;;;;;5126918;27;20375;-63
2022/01/11 01:14:00;;;;;;;32.22;18.15;;;-0.80;99.90;;;;;;5127235;27;20035;-63
2022/01/11 01:16:26;;;;;;;37.00;20.02;;;-0.80;99.90;;;;;;5127516;27;20118;-63
2022/01/11 01:18:52;;;;;;;37.00;20.13;;;-0.70;99.90;;;;;;5127337;27;20122;-63
2022/01/11 01:21:18;;;;;;;37.47;19.33;;;-0.70;99.90;;;;;;5127370;27;20096;-63
2022/01/11 01:23:44;;;;;;;40.15;19.60;;;-0.70;99.90;;;;;;5127766;27;20051;-63
2022/01/11 01:26:11;;;;;;;34.88;20.05;;;-0.60;99.90;;;;;;5127630;27;20483;-63
2022/01/11 01:28:37;;;;;;;36.15;19.52;;;-0.60;99.90;;;;;;5127471;27;20039;-63
2022/01/11 01:31:03;;;;;;;32.55;17.83;;;-0.60;99.90;;;;;;5128551;27;20087;-63
2022/01/11 01:33:30;;;;;;;33.10;18.42;;;-0.60;99.90;;;;;;5128441;27;20039;-63
2022/01/11 01:36:01;;;;;;;25.85;15.95;;;-0.70;99.90;;;;;;5128132;27;20526;-63
2022/01/11 01:38:28;;;;;;;30.80;16.90;;;-0.70;99.90;;;;;;5126868;27;20035;-63
2022/01/11 01:41:01;;;;;;;38.40;18.85;;;-0.70;99.90;;;;;;5127529;28;20043;-63
2022/01/11 01:43:27;;;;;;;34.97;18.98;;;-0.70;99.90;;;;;;5126081;28;20064;-63
2022/01/11 01:45:53;;;;;;;34.25;17.52;;;-0.70;99.90;;;;;;5128519;27;20067;-63
2022/01/11 01:48:19;;;;;;;34.05;18.42;;;-0.70;99.90;;;;;;5129536;27;20035;-63
2022/01/11 01:50:47;;;;;;;34.70;17.65;;;-0.60;99.90;;;;;;5127384;28;20050;-63
2022/01/11 01:53:14;;;;;;;31.83;17.67;;;-0.60;99.90;;;;;;5129161;27;20176;-63
2022/01/11 01:55:41;;;;;;;36.95;18.63;;;-0.60;99.90;;;;;;5128465;27;20049;-63
2022/01/11 01:58:08;;;;;;;36.38;18.77;;;-0.60;99.90;;;;;;5127080;28;20129;-63
2022/01/11 02:00:40;;;;;;;29.88;16.52;;;-0.60;99.90;;;;;;5126103;28;20045;-63
2022/01/11 02:03:10;;;;;;;30.10;15.90;;;-0.60;99.90;;;;;;5127568;27;20364;-63
2022/01/11 02:05:36;;;;;;;30.58;16.70;;;-0.60;99.90;;;;;;5128119;27;20051;-63
2022/01/11 02:08:02;;;;;;;33.03;17.75;;;-0.70;99.90;;;;;;5128360;27;20051;-63
2022/01/11 02:10:28;;;;;;;30.90;16.20;;;-0.70;99.90;;;;;;5111366;27;20061;-63
2022/01/11 02:12:54;;;;;;;36.25;17.33;;;-0.80;99.90;;;;;;5131841;27;20036;-63
2022/01/11 02:15:20;;;;;;;35.88;17.38;;;-0.80;99.90;;;;;;5131143;27;20163;-63
2022/01/11 02:17:45;;;;;;;37.80;18.55;;;-0.90;99.90;;;;;;5130300;27;20486;-63
2022/01/11 02:20:13;;;;;;;53.90;22.90;;;-0.80;99.90;;;;;;5129093;27;20078;-63
2022/01/11 02:22:39;;;;;;;42.88;20.20;;;-1.20;99.90;;;;;;5129926;27;20118;-63
2022/01/11 02:25:05;;;;;;;39.10;19.00;;;-0.80;99.90;;;;;;5130488;27;20158;-63
2022/01/11 02:27:31;;;;;;;42.75;20.10;;;-0.80;99.90;;;;;;5130656;27;20085;-63
2022/01/11 02:29:56;;;;;;;45.08;19.27;;;-0.80;99.90;;;;;;5128904;27;20043;-64
2022/01/11 02:32:22;;;;;;;41.30;19.02;;;-0.80;99.90;;;;;;5129608;27;20035;-63
2022/01/11 02:34:48;;;;;;;42.03;19.15;;;-0.90;99.90;;;;;;5129268;27;20146;-63
2022/01/11 02:37:14;;;;;;;43.83;20.58;;;-0.90;99.90;;;;;;5131121;27;20039;-63
2022/01/11 02:39:40;;;;;;;44.63;20.48;;;-0.80;99.90;;;;;;5130385;27;20043;-63
2022/01/11 02:42:06;;;;;;;43.80;20.13;;;-0.80;99.90;;;;;;5130488;27;20031;-63
2022/01/11 02:44:32;;;;;;;40.08;18.70;;;-0.70;99.90;;;;;;5128663;27;20610;-63
2022/01/11 02:46:58;;;;;;;40.00;18.85;;;-0.70;99.90;;;;;;5131108;27;20039;-63
2022/01/11 02:49:24;;;;;;;40.33;19.60;;;-0.60;99.90;;;;;;5130250;27;20199;-63
2022/01/11 02:51:50;;;;;;;36.42;18.17;;;-0.60;99.90;;;;;;5131319;27;20055;-63
2022/01/11 02:54:15;;;;;;;37.78;18.85;;;-0.60;99.90;;;;;;5132272;27;20430;-63
2022/01/11 02:56:41;;;;;;;36.70;18.15;;;-0.50;99.90;;;;;;5131242;27;20042;-63
2022/01/11 02:59:07;;;;;;;40.85;17.80;;;-0.50;99.90;;;;;;5131583;27;20055;-64
2022/01/11 03:01:32;;;;;;;42.35;19.90;;;-0.50;99.90;;;;;;5131916;27;20073;-63
2022/01/11 03:03:58;;;;;;;36.17;19.45;;;-0.50;99.90;;;;;;5131931;27;20340;-63
2022/01/11 03:06:25;;;;;;;42.33;18.67;;;-0.50;99.90;;;;;;5130250;27;20051;-63
2022/01/11 03:08:50;;;;;;;41.05;18.60;;;-0.50;99.90;;;;;;5129820;27;20044;-64
2022/01/11 03:11:19;;;;;;;45.67;20.42;;;-0.50;99.90;;;;;;5130012;27;20046;-63
2022/01/11 03:13:45;;;;;;;50.13;21.58;;;-0.50;99.90;;;;;;5129930;27;20584;-64
2022/01/11 03:16:13;;;;;;;49.72;20.30;;;-0.50;99.90;;;;;;5129889;27;20121;-64
2022/01/11 03:18:38;;;;;;;49.78;22.35;;;-0.50;99.90;;;;;;5111804;27;20038;-63
2022/01/11 03:21:05;;;;;;;52.78;21.83;;;-0.50;99.90;;;;;;5128472;27;20041;-63
2022/01/11 03:23:31;;;;;;;45.42;20.60;;;-0.40;99.90;;;;;;5128197;27;20042;-64
2022/01/11 03:25:57;;;;;;;45.47;20.60;;;-0.50;99.90;;;;;;5128765;27;20050;-64
2022/01/11 03:28:24;;;;;;;48.08;20.40;;;-0.50;99.90;;;;;;5129269;27;20086;-63
2022/01/11 03:30:52;;;;;;;46.72;19.45;;;-0.50;99.90;;;;;;5129293;27;20135;-63
2022/01/11 03:33:18;;;;;;;48.45;21.63;;;-0.50;99.90;;;;;;5128359;27;20062;-63
2022/01/11 03:35:44;;;;;;;48.30;20.88;;;-0.60;99.90;;;;;;5128088;27;20038;-63
2022/01/11 03:38:12;;;;;;;48.55;21.60;;;-0.60;99.90;;;;;;5129944;27;20100;-63
2022/01/11 03:40:37;;;;;;;54.15;22.13;;;-0.60;99.90;;;;;;5127938;27;20088;-63
2022/01/11 03:43:03;;;;;;;49.78;21.63;;;-0.60;99.90;;;;;;5126101;27;20042;-63
2022/01/11 03:45:29;;;;;;;43.50;19.95;;;-0.50;99.90;;;;;;5128096;27;20054;-63
2022/01/11 03:47:58;;;;;;;45.33;19.73;;;-0.50;99.90;;;;;;5129540;27;20049;-64
2022/01/11 03:50:25;;;;;;;41.88;19.77;;;-0.50;99.90;;;;;;5128692;27;20041;-63
2022/01/11 03:53:09;;;;;;;39.00;19.13;;;-0.50;99.90;;;;;;5127288;27;20402;-63
2022/01/11 03:55:57;;;;;;;42.75;20.42;;;-0.50;99.90;;;;;;5127340;27;20507;-64
2022/01/11 03:58:26;;;;;;;45.83;19.60;;;-0.50;99.90;;;;;;5127870;27;20070;-63
2022/01/11 04:00:53;;;;;;;41.88;19.33;;;-0.60;99.90;;;;;;5125789;27;20075;-64
2022/01/11 04:03:19;;;;;;;44.90;20.40;;;-0.60;99.90;;;;;;5123737;27;20039;-63
2022/01/11 04:05:46;;;;;;;39.45;18.52;;;-0.60;99.90;;;;;;5124418;27;20053;-63
2022/01/11 04:08:12;;;;;;;39.83;19.85;;;-0.50;99.90;;;;;;5127960;27;20398;-63
2022/01/11 04:10:38;;;;;;;46.88;20.20;;;-0.60;99.90;;;;;;5129638;27;20051;-63
2022/01/11 04:13:04;;;;;;;43.40;19.27;;;-0.70;99.90;;;;;;5127571;27;20115;-63
2022/01/11 04:15:30;;;;;;;35.78;17.42;;;-0.60;99.90;;;;;;5129532;27;20073;-63
2022/01/11 04:17:56;;;;;;;36.15;18.17;;;-0.70;99.90;;;;;;5128200;27;20443;-63
2022/01/11 04:20:22;;;;;;;41.78;20.17;;;-0.70;99.90;;;;;;5127542;27;20043;-63
2022/01/11 04:22:49;;;;;;;43.83;19.25;;;-0.70;99.90;;;;;;5128183;27;20097;-63
2022/01/11 04:25:15;;;;;;;37.22;18.67;;;-0.60;99.90;;;;;;5129699;27;20474;-63
2022/01/11 04:27:41;;;;;;;37.00;17.95;;;-0.80;99.90;;;;;;5127796;27;20067;-63
2022/01/11 04:30:07;;;;;;;39.53;18.73;;;-0.90;99.90;;;;;;5126729;27;20086;-63
2022/01/11 04:32:33;;;;;;;33.80;17.60;;;-0.90;99.90;;;;;;5128958;27;20050;-63
2022/01/11 04:34:59;;;;;;;38.80;18.27;;;-0.90;99.90;;;;;;5111078;27;20035;-63
2022/01/11 04:37:25;;;;;;;35.05;18.70;;;-0.90;99.90;;;;;;5127436;27;20479;-63
2022/01/11 04:39:51;;;;;;;40.45;18.45;;;-0.90;99.90;;;;;;5128154;27;20385;-63
2022/01/11 04:42:16;;;;;;;41.80;20.17;;;-0.90;99.90;;;;;;5127448;27;20035;-63
2022/01/11 04:44:42;;;;;;;37.38;18.70;;;-0.90;99.90;;;;;;5128782;27;20031;-63
2022/01/11 04:47:08;;;;;;;37.35;17.50;;;-0.80;99.90;;;;;;5129582;27;20126;-63
2022/01/11 04:49:34;;;;;;;32.63;16.20;;;-0.80;99.90;;;;;;5127910;27;20580;-63
2022/01/11 04:52:00;;;;;;;36.50;17.40;;;-0.90;99.90;;;;;;5127722;27;20688;-63
2022/01/11 04:54:26;;;;;;;38.65;18.05;;;-0.90;99.90;;;;;;5128213;27;20048;-63
2022/01/11 04:56:52;;;;;;;36.90;16.23;;;-0.80;99.90;;;;;;5128510;27;20126;-63
2022/01/11 04:59:17;;;;;;;42.50;19.92;;;-0.80;99.90;;;;;;5128246;27;20122;-63
2022/01/11 05:01:43;;;;;;;36.70;17.58;;;-0.80;99.90;;;;;;5128367;27;20043;-63
2022/01/11 05:04:09;;;;;;;35.78;17.75;;;-0.70;99.90;;;;;;5129118;27;20101;-63
2022/01/11 05:06:35;;;;;;;36.50;18.25;;;-0.70;99.90;;;;;;5128243;27;20039;-63
2022/01/11 05:09:01;;;;;;;40.58;18.30;;;-0.70;99.90;;;;;;5129280;27;20051;-63
2022/01/11 05:11:27;;;;;;;39.30;17.58;;;-0.70;99.90;;;;;;5128027;27;20043;-63
2022/01/11 05:13:53;;;;;;;39.45;18.23;;;-0.70;99.90;;;;;;5129011;27;20675;-63
2022/01/11 05:16:18;;;;;;;40.63;17.05;;;-0.60;99.90;;;;;;5128018;27;20027;-63
2022/01/11 05:18:44;;;;;;;37.40;17.35;;;-0.60;99.90;;;;;;5127757;27;20470;-63
2022/01/11 05:21:10;;;;;;;37.08;17.98;;;-0.60;99.90;;;;;;5127394;27;20117;-63
2022/01/11 05:23:35;;;;;;;35.80;17.40;;;-0.50;99.90;;;;;;5127106;27;21255;-63
2022/01/11 05:26:02;;;;;;;36.72;17.25;;;-0.40;99.90;;;;;;5127887;27;20047;-63
2022/01/11 05:28:28;;;;;;;36.90;18.02;;;-0.50;99.90;;;;;;5128724;27;20046;-63
2022/01/11 05:30:54;;;;;;;37.95;17.60;;;-0.50;99.90;;;;;;5127962;27;20403;-63
2022/01/11 05:33:20;;;;;;;39.90;18.10;;;-0.50;99.90;;;;;;5110551;28;20490;-63
2022/01/11 05:35:47;;;;;;;29.65;15.43;;;-0.50;99.90;;;;;;5128132;27;20122;-63
2022/01/11 05:38:13;;;;;;;39.55;17.17;;;-0.50;99.90;;;;;;5126896;27;20055;-63
2022/01/11 05:40:39;;;;;;;37.33;17.45;;;-0.50;99.90;;;;;;5108104;28;20038;-63
2022/01/11 05:43:06;;;;;;;34.75;16.38;;;-0.50;99.90;;;;;;5125473;28;20045;-63
2022/01/11 05:45:32;;;;;;;33.05;16.98;;;-0.50;99.90;;;;;;5127319;27;20055;-63
2022/01/11 05:48:00;;;;;;;35.67;17.02;;;-0.50;99.90;;;;;;5133071;27;20041;-63
2022/01/11 05:50:26;;;;;;;36.60;16.65;;;-0.60;99.90;;;;;;5128965;27;20039;-63
2022/01/11 05:52:52;;;;;;;34.83;17.48;;;-0.60;99.90;;;;;;5131369;27;20035;-63
2022/01/11 05:55:18;;;;;;;34.33;16.25;;;-0.60;99.90;;;;;;5130857;27;20026;-63
2022/01/11 05:57:45;;;;;;;36.67;17.08;;;-0.50;99.90;;;;;;5130638;27;20031;-63
2022/01/11 06:00:15;;;;;;;33.17;17.05;;;-0.60;99.90;;;;;;5131047;27;20142;-63
2022/01/11 06:02:44;;;;;;;29.58;15.82;;;-0.60;99.90;;;;;;5130463;27;20402;-63
2022/01/11 06:05:10;;;;;;;31.40;16.25;;;-0.60;99.90;;;;;;5113584;27;20382;-63
2022/01/11 06:07:37;;;;;;;34.05;16.15;;;-0.70;99.90;;;;;;5132713;27;20050;-63
2022/01/11 06:10:04;;;;;;;30.45;15.10;;;-0.70;99.90;;;;;;5132523;27;20513;-63
2022/01/11 06:12:29;;;;;;;32.67;16.88;;;-0.70;99.90;;;;;;5128783;27;20131;-63
2022/01/11 06:14:55;;;;;;;31.67;16.65;;;-0.70;99.90;;;;;;5131095;27;20122;-63
2022/01/11 06:17:21;;;;;;;28.05;14.65;;;0.50;99.90;;;;;;5130860;27;20474;-63
2022/01/11 06:19:46;;;;;;;27.58;15.02;;;-0.70;99.90;;;;;;5130833;27;20039;-63
2022/01/11 06:22:12;;;;;;;30.38;15.30;;;-0.70;99.90;;;;;;5132270;27;20039;-63
2022/01/11 06:24:38;;;;;;;32.17;15.82;;;-0.70;99.90;;;;;;5131151;27;20047;-63
2022/01/11 06:27:04;;;;;;;29.02;14.43;;;-0.70;99.90;;;;;;5130677;27;20574;-63
2022/01/11 06:29:29;;;;;;;28.80;15.07;;;-0.70;99.90;;;;;;5132473;27;20042;-63
2022/01/11 06:31:55;;;;;;;29.27;14.20;;;-0.80;99.90;;;;;;5130200;27;20066;-63
2022/01/11 06:34:21;;;;;;;30.23;14.95;;;-0.70;99.90;;;;;;5131905;27;20115;-63
2022/01/11 06:36:47;;;;;;;30.40;14.95;;;-0.70;99.90;;;;;;5130826;27;20054;-63
2022/01/11 06:39:13;;;;;;;28.13;14.35;;;-0.80;99.90;;;;;;5130249;27;20039;-63
2022/01/11 06:41:38;;;;;;;31.00;16.02;;;-0.70;99.90;;;;;;5130422;27;20031;-63
2022/01/11 06:44:05;;;;;;;29.20;15.13;;;-0.70;99.90;;;;;;5130650;27;20470;-63
2022/01/11 06:46:32;;;;;;;29.92;15.32;;;-0.70;99.90;;;;;;5131103;27;20058;-63
2022/01/11 06:48:59;;;;;;;27.30;13.88;;;-0.70;99.90;;;;;;5131067;27;20073;-63
2022/01/11 06:51:25;;;;;;;29.38;15.20;;;-0.70;99.90;;;;;;5129222;27;20039;-63
2022/01/11 06:53:51;;;;;;;28.58;14.77;;;-0.60;99.90;;;;;;5130979;27;20053;-63
2022/01/11 06:56:17;;;;;;;29.35;15.27;;;-0.70;99.90;;;;;;5131323;27;20043;-63
2022/01/11 06:58:44;;;;;;;28.75;15.80;;;-0.70;99.90;;;;;;5130117;27;20485;-63
2022/01/11 07:01:10;;;;;;;31.35;16.48;;;-0.70;99.90;;;;;;5129993;27;20035;-63
2022/01/11 07:03:37;;;;;;;33.35;16.20;;;-0.70;99.90;;;;;;5130293;27;20130;-63
2022/01/11 07:06:03;;;;;;;34.75;16.42;;;-0.70;99.90;;;;;;5127378;27;20118;-62
2022/01/11 07:08:29;;;;;;;34.30;16.13;;;-0.60;99.90;;;;;;5129930;27;20547;-63
2022/01/11 07:10:54;;;;;;;29.33;14.27;;;-0.60;99.90;;;;;;5131295;27;20047;-63
2022/01/11 07:13:20;;;;;;;32.05;15.45;;;-0.60;99.90;;;;;;5129871;27;20047;-63
2022/01/11 07:15:46;;;;;;;30.23;16.10;;;-0.60;99.90;;;;;;5129235;27;20518;-63
2022/01/11 07:18:12;;;;;;;38.75;17.65;;;-0.60;99.90;;;;;;5129469;27;20054;-63
2022/01/11 07:20:42;;;;;;;32.25;15.80;;;-0.60;99.90;;;;;;5126610;27;20360;-63
2022/01/11 07:23:08;;;;;;;32.30;14.93;;;-0.60;99.90;;;;;;5126800;27;20065;-63
2022/01/11 07:25:35;;;;;;;34.67;16.58;;;-0.60;99.90;;;;;;5127971;27;20043;-63
2022/01/11 07:28:01;;;;;;;31.42;15.93;;;-0.60;99.90;;;;;;5130828;27;20035;-63
2022/01/11 07:30:27;;;;;;;35.78;16.95;;;-0.60;99.90;;;;;;5130523;27;20046;-63
2022/01/11 07:32:53;;;;;;;34.78;16.85;;;-0.50;99.90;;;;;;5129753;27;20841;-63
2022/01/11 07:35:19;;;;;;;32.35;16.33;;;-0.50;99.90;;;;;;5130383;27;20046;-63
2022/01/11 07:37:44;;;;;;;39.35;17.70;;;-0.50;99.90;;;;;;5129030;27;20176;-63
2022/01/11 07:40:11;;;;;;;35.42;17.20;;;-0.50;99.90;;;;;;5126309;27;20087;-63
2022/01/11 07:42:36;;;;;;;35.20;16.98;;;-0.50;99.90;;;;;;5129018;27;20502;-63
2022/01/11 07:45:03;;;;;;;36.58;17.83;;;-0.50;99.90;;;;;;5126153;27;20070;-63
2022/01/11 07:47:28;;;;;;;37.42;18.30;;;-0.50;99.90;;;;;;5128405;27;20039;-63
2022/01/11 07:49:54;;;;;;;35.00;17.10;;;-0.40;99.90;;;;;;5128842;27;20486;-64
2022/01/11 07:52:20;;;;;;;32.33;16.88;;;-0.40;99.90;;;;;;5126801;27;20051;-63
2022/01/11 07:54:46;;;;;;;35.58;16.88;;;-0.40;99.90;;;;;;5128465;27;20080;-64
2022/01/11 07:57:12;;;;;;;33.83;17.05;;;-0.40;99.90;;;;;;5127860;27;20047;-64
2022/01/11 07:59:38;;;;;;;39.92;18.30;;;-0.40;99.90;;;;;;5128551;27;20043;-63
2022/01/11 08:02:04;;;;;;;36.05;16.98;;;-0.30;99.90;;;;;;5129956;27;20027;-63
2022/01/11 08:04:31;;;;;;;42.75;18.95;;;-0.20;99.90;;;;;;5129696;27;20140;-63
2022/01/11 08:07:00;;;;;;;34.55;18.15;;;-0.30;99.90;;;;;;5128862;27;20046;-64
2022/01/11 08:09:26;;;;;;;42.38;19.13;;;-0.30;99.90;;;;;;5128074;27;20095;-64
2022/01/11 08:11:55;;;;;;;43.60;18.77;;;-0.20;99.90;;;;;;5129181;27;20118;-64
2022/01/11 08:14:22;;;;;;;43.92;19.13;;;-0.20;99.90;;;;;;5126106;27;20043;-63
2022/01/11 08:16:47;;;;;;;45.15;20.30;;;-0.20;99.90;;;;;;5128940;27;20035;-63
2022/01/11 08:19:13;;;;;;;43.55;20.83;;;-0.20;99.90;;;;;;5125838;27;20035;-63
2022/01/11 08:21:39;;;;;;;46.50;20.17;;;-0.10;99.90;;;;;;5124683;27;20046;-63
2022/01/11 08:24:05;;;;;;;47.28;20.27;;;0.00;99.90;;;;;;5127506;27;20035;-63
2022/01/11 08:26:31;;;;;;;52.08;22.23;;;0.00;99.90;;;;;;5127487;27;20148;-63
2022/01/11 08:28:57;;;;;;;42.53;20.00;;;0.00;99.90;;;;;;5128728;27;20078;-63
2022/01/11 08:31:23;;;;;;;41.47;21.25;;;0.00;99.90;;;;;;5128762;27;20504;-63
2022/01/11 08:33:48;;;;;;;45.72;21.25;;;0.10;99.90;;;;;;5128106;27;20061;-63
2022/01/11 08:36:14;;;;;;;44.22;21.90;;;0.10;99.90;;;;;;5128298;27;20046;-63
2022/01/11 08:38:40;;;;;;;48.05;22.52;;;0.20;99.90;;;;;;5126860;27;20073;-63
2022/01/11 08:41:07;;;;;;;42.38;21.05;;;1.10;99.90;;;;;;5127911;27;20139;-64
2022/01/11 08:43:33;;;;;;;49.97;22.13;;;0.30;99.90;;;;;;5128089;27;20054;-63
2022/01/11 08:46:02;;;;;;;43.53;21.50;;;0.30;99.90;;;;;;5128398;27;20027;-63
2022/01/11 08:48:28;;;;;;;51.10;23.48;;;0.30;99.90;;;;;;5127945;27;20046;-64
2022/01/11 08:50:54;;;;;;;45.55;22.30;;;0.40;99.90;;;;;;5128221;27;20386;-64
2022/01/11 08:53:21;;;;;;;48.45;23.83;;;0.40;99.90;;;;;;5128564;27;20046;-63
2022/01/11 08:55:50;;;;;;;43.10;21.77;;;0.40;99.90;;;;;;5127567;27;20382;-63
2022/01/11 08:58:17;;;;;;;46.42;22.15;;;0.50;99.90;;;;;;5128395;27;20031;-63
2022/01/11 09:00:43;;;;;;;45.28;23.30;;;0.50;99.90;;;;;;5125827;27;20043;-63
2022/01/11 09:03:09;;;;;;;48.08;23.73;;;0.50;99.90;;;;;;5124886;27;20376;-63
2022/01/11 09:05:35;;;;;;;48.33;22.65;;;0.60;99.90;;;;;;5124731;27;20046;-64
2022/01/11 09:08:01;;;;;;;43.47;22.60;;;0.60;99.90;;;;;;5109871;27;20051;-64
2022/01/11 09:10:27;;;;;;;52.78;23.65;;;0.60;99.90;;;;;;5118765;27;20111;-64
2022/01/11 09:12:52;;;;;;;48.97;23.30;;;0.60;99.90;;;;;;5123633;27;20074;-64
2022/01/11 09:15:19;;;;;;;45.95;22.38;;;0.60;99.90;;;;;;5124745;27;20153;-64
2022/01/11 09:17:46;;;;;;;50.58;24.50;;;0.60;99.90;;;;;;5144283;27;20364;-64
2022/01/11 09:20:13;;;;;;;45.35;23.25;;;0.70;99.90;;;;;;5125686;27;20122;-64
2022/01/11 09:22:40;;;;;;;44.80;23.90;;;0.70;99.90;;;;;;5123999;27;20219;-64
2022/01/11 09:25:07;;;;;;;50.70;24.67;;;0.70;99.90;;;;;;5125510;27;20057;-64
2022/01/11 09:27:32;;;;;;;54.15;24.63;;;0.70;99.90;;;;;;5123243;27;20065;-64
2022/01/11 09:29:59;;;;;;;52.03;24.55;;;0.70;99.90;;;;;;5127755;27;20127;-63
2022/01/11 09:32:25;;;;;;;50.10;23.70;;;0.70;99.90;;;;;;5093773;28;20035;-64
2022/01/11 09:34:51;;;;;;;51.95;23.75;;;0.80;99.90;;;;;;5127184;27;20037;-64
2022/01/11 09:37:17;;;;;;;45.80;22.00;;;0.70;99.90;;;;;;5127934;27;20054;-64
2022/01/11 09:39:43;;;;;;;48.75;23.02;;;0.80;99.90;;;;;;5125487;27;20047;-64
2022/01/11 09:42:09;;;;;;;50.65;24.65;;;0.80;99.90;;;;;;5126613;28;20027;-64
2022/01/11 09:44:38;;;;;;;41.90;22.67;;;0.80;99.90;;;;;;5128040;27;20070;-64
2022/01/11 09:47:07;;;;;;;46.78;22.65;;;0.80;99.90;;;;;;5125886;27;20047;-64
2022/01/11 09:49:32;;;;;;;42.65;22.15;;;0.80;99.90;;;;;;5123890;27;20157;-64
2022/01/11 09:52:01;;;;;;;47.28;23.25;;;0.80;99.90;;;;;;5108504;28;20154;-64
2022/01/11 09:54:27;;;;;;;42.50;22.48;;;0.80;99.90;;;;;;5122478;27;20114;-64
2022/01/11 09:56:53;;;;;;;43.05;22.92;;;0.90;99.90;;;;;;5117383;27;20122;-64
2022/01/11 09:59:19;;;;;;;47.15;22.35;;;0.90;99.90;;;;;;5123781;27;20084;-64
2022/01/11 10:01:45;;;;;;;42.20;21.63;;;0.90;99.90;;;;;;5107340;28;20440;-64
2022/01/11 10:04:13;;;;;;;45.25;22.17;;;0.90;99.90;;;;;;5126181;28;20114;-64
2022/01/11 10:06:42;;;;;;;38.50;21.35;;;1.30;99.90;;;;;;5124608;27;20059;-65
2022/01/11 10:09:07;;;;;;;36.80;20.95;;;1.00;99.90;;;;;;5107114;27;20566;-64
2022/01/11 10:11:41;;;;;;;38.28;20.23;;;0.90;99.90;;;;;;5124056;27;20057;-64
2022/01/11 10:14:22;;;;;;;42.22;22.00;;;1.10;99.90;;;;;;5124376;27;20051;-63
2022/01/11 10:16:49;;;;;;;43.72;22.23;;;1.00;99.90;;;;;;5124351;27;20047;-64
2022/01/11 10:19:24;;;;;;;42.53;21.55;;;1.10;99.90;;;;;;5109058;28;20039;-64
2022/01/11 10:21:54;;;;;;;36.72;20.75;;;1.10;99.90;;;;;;5125103;28;20047;-64
2022/01/11 10:24:47;;;;;;;40.33;19.88;;;1.10;99.90;;;;;;5109062;28;20369;-64
2022/01/11 10:27:19;;;;;;;37.83;20.52;;;1.10;99.90;;;;;;5120352;28;20134;-64
2022/01/11 10:29:50;;;;;;;41.33;20.95;;;1.10;99.90;;;;;;5116680;27;20082;-64
2022/01/11 10:32:27;;;;;;;34.30;19.10;;;1.20;99.90;;;;;;5125127;27;20686;-64
2022/01/11 10:34:56;;;;;;;40.92;21.02;;;1.20;99.90;;;;;;5127942;27;20442;-64
2022/01/11 10:37:41;;;;;;;36.33;20.17;;;1.20;99.90;;;;;;5108855;27;20058;-64
2022/01/11 10:40:07;;;;;;;37.88;19.67;;;1.30;99.90;;;;;;5126983;27;20062;-64
2022/01/11 10:42:38;;;;;;;37.05;19.52;;;1.30;99.90;;;;;;5127873;27;20082;-63
2022/01/11 10:45:12;;;;;;;36.55;19.40;;;1.30;99.90;;;;;;5129934;27;20534;-63
2022/01/11 10:47:41;;;;;;;33.50;18.77;;;1.40;99.90;;;;;;5125376;27;20080;-63
2022/01/11 10:50:11;;;;;;;32.80;18.58;;;1.40;99.90;;;;;;5130997;27;20027;-64
2022/01/11 10:52:38;;;;;;;34.08;19.38;;;1.40;99.90;;;;;;5127789;27;20134;-63
2022/01/11 10:55:07;;;;;;;33.97;19.17;;;1.60;99.90;;;;;;5111406;27;20096;-63
2022/01/11 10:57:40;;;;;;;32.60;19.02;;;1.50;99.90;;;;;;5128247;27;20050;-63
2022/01/11 11:00:30;;;;;;;33.05;17.90;;;1.50;99.90;;;;;;5129001;27;20055;-64
2022/01/11 11:02:59;;;;;;;36.75;18.25;;;1.30;99.90;;;;;;5116334;27;20055;-64
2022/01/11 11:05:37;;;;;;;33.33;18.17;;;2.90;99.90;;;;;;5126556;27;20069;-64
2022/01/11 11:08:05;;;;;;;34.05;18.75;;;2.10;99.90;;;;;;5124280;27;20123;-63
2022/01/11 11:10:39;;;;;;;33.50;18.77;;;1.60;99.90;;;;;;5121278;27;20053;-63
2022/01/11 11:13:07;;;;;;;33.10;18.92;;;1.60;99.90;;;;;;5128046;27;20443;-64
2022/01/11 11:15:40;;;;;;;30.25;18.35;;;1.70;99.90;;;;;;5125400;27;20051;-64
2022/01/11 11:18:21;;;;;;;34.58;18.15;;;1.70;99.90;;;;;;5125576;27;20031;-63
2022/01/11 11:20:47;;;;;;;33.65;18.35;;;2.40;99.90;;;;;;5125240;27;20048;-63
2022/01/11 11:23:15;;;;;;;30.55;17.70;;;2.00;99.90;;;;;;5128552;27;20039;-63
2022/01/11 11:25:41;;;;;;;29.88;17.50;;;1.80;99.90;;;;;;5127522;27;20051;-63
2022/01/11 11:28:07;;;;;;;31.02;19.25;;;1.80;99.90;;;;;;5127522;27;20084;-63
2022/01/11 11:30:33;;;;;;;29.45;17.88;;;1.80;99.90;;;;;;5125404;27;20558;-63
2022/01/11 11:32:59;;;;;;;30.35;17.77;;;1.80;99.90;;;;;;5129496;27;20126;-64
2022/01/11 11:35:25;;;;;;;29.42;17.27;;;1.90;99.90;;;;;;5127409;27;20047;-63
2022/01/11 11:38:08;;;;;;;33.08;18.23;;;2.00;99.90;;;;;;5125605;27;20043;-64
2022/01/11 11:40:35;;;;;;;28.83;16.55;;;2.10;99.90;;;;;;5128313;27;20055;-63
2022/01/11 11:43:03;;;;;;;28.15;16.45;;;2.10;99.90;;;;;;5126438;27;20105;-64
2022/01/11 11:45:37;;;;;;;27.83;17.00;;;2.30;99.90;;;;;;5127340;27;20039;-63
2022/01/11 11:48:11;;;;;;;27.63;16.60;;;2.40;99.90;;;;;;5110296;27;20110;-64
2022/01/11 11:50:58;;;;;;;27.20;16.55;;;2.50;99.90;;;;;;5126250;27;20046;-63
2022/01/11 11:53:26;;;;;;;25.75;16.00;;;2.60;99.90;;;;;;5127847;27;20042;-63
2022/01/11 11:56:15;;;;;;;30.90;16.92;;;2.70;99.90;;;;;;5127745;27;20491;-64
2022/01/11 11:58:43;;;;;;;27.27;16.10;;;2.80;99.90;;;;;;5129191;27;20051;-63
2022/01/11 12:01:29;;;;;;;25.58;16.13;;;4.00;99.90;;;;;;5110443;27;20051;-64
2022/01/11 12:03:55;;;;;;;26.00;15.65;;;3.10;99.90;;;;;;5130862;27;20031;-63
2022/01/11 12:06:28;;;;;;;27.92;15.32;;;3.20;99.90;;;;;;5129996;27;20070;-63
2022/01/11 12:09:06;;;;;;;29.35;16.85;;;3.30;99.90;;;;;;5128762;27;20063;-64
2022/01/11 12:11:37;;;;;;;28.90;17.20;;;3.30;99.90;;;;;;5126323;27;20770;-63
2022/01/11 12:14:04;;;;;;;24.33;15.32;;;3.40;99.90;;;;;;5127367;27;20420;-64
2022/01/11 12:16:35;;;;;;;26.42;15.20;;;3.40;99.90;;;;;;5124844;27;20410;-63
2022/01/11 12:19:02;;;;;;;23.50;15.80;;;3.50;99.90;;;;;;5146081;27;20086;-64
2022/01/11 12:21:30;;;;;;;30.02;16.10;;;3.60;99.90;;;;;;5128419;27;20039;-63
2022/01/11 12:24:00;;;;;;;25.60;15.50;;;3.60;99.90;;;;;;5129570;27;20129;-64
2022/01/11 12:26:31;;;;;;;28.73;15.95;;;3.60;99.90;;;;;;5128180;27;20073;-64
2022/01/11 12:29:07;;;;;;;29.17;16.35;;;3.70;99.90;;;;;;5109798;27;20039;-62
2022/01/11 12:31:58;;;;;;;28.52;16.08;;;3.80;99.90;;;;;;5145561;27;20076;-62